Time;durP1;ratioP1;P1;durP2;ratioP2;P2;SDS_P1;SDS_P2;PMS_P1;PMS_P2;Temp;Humidity;BMP_temperature;BMP_pressure;BME280_temperature;BME280_humidity;BME280_pressure;Samples;Min_cycle;Max_cycle;Signal;HPM_P1;HPM_P2
2022/08/05 00:01:21;;;;;;;5.13;4.63;;;;;;;;;;5029182;28;20032;-58
2022/08/05 00:03:48;;;;;;;6.32;5.00;;;;;;;;;;5028238;28;20025;-58
2022/08/05 00:06:14;;;;;;;5.75;4.78;;;;;;;;;;5028660;28;20033;-58
2022/08/05 00:08:41;;;;;;;6.30;4.63;;;;;;;;;;5028937;28;20462;-58
2022/08/05 00:11:12;;;;;;;5.60;4.90;;;;;;;;;;5028233;28;20114;-59
2022/08/05 00:13:40;;;;;;;5.88;4.53;;;;;;;;;;5029660;28;20132;-58
2022/08/05 00:16:08;;;;;;;5.80;4.90;;;;;;;;;;5027446;28;20036;-60
2022/08/05 00:18:34;;;;;;;7.82;4.95;;;;;;;;;;5027205;28;20471;-58
2022/08/05 00:20:59;;;;;;;7.07;4.95;;;;;;;;;;5024125;28;20042;-59
2022/08/05 00:23:25;;;;;;;7.60;4.20;;;;;;;;;;5027469;28;20056;-59
2022/08/05 00:25:50;;;;;;;6.50;4.30;;;;;;;;;;5025773;28;20391;-58
2022/08/05 00:28:16;;;;;;;7.55;4.45;;;;;;;;;;5025871;28;20057;-58
2022/08/05 00:30:42;;;;;;;6.38;4.30;;;;;;;;;;5029957;28;20029;-58
2022/08/05 00:33:07;;;;;;;7.38;4.05;;;;;;;;;;5024399;28;20499;-58
2022/08/05 00:35:33;;;;;;;4.47;3.92;;;;;;;;;;5024560;28;20029;-58
2022/08/05 00:37:58;;;;;;;5.97;4.40;;;;;;;;;;5023704;28;20499;-58
2022/08/05 00:40:26;;;;;;;7.15;5.30;;;;;;;;;;5026572;28;20040;-58
2022/08/05 00:42:51;;;;;;;4.78;4.28;;;;;;;;;;5020227;28;20025;-58
2022/08/05 00:45:17;;;;;;;6.15;5.28;;;;;;;;;;5021350;28;20419;-58
2022/08/05 00:47:42;;;;;;;7.63;4.47;;;;;;;;;;5023009;28;20029;-59
2022/08/05 00:50:08;;;;;;;7.25;4.55;;;;;;;;;;5030167;28;20471;-58
2022/08/05 00:52:34;;;;;;;5.40;4.22;;;;;;;;;;5029824;28;20036;-58
2022/08/05 00:54:59;;;;;;;6.60;4.82;;;;;;;;;;5031118;28;20021;-58
2022/08/05 00:57:25;;;;;;;5.47;4.18;;;;;;;;;;5028225;28;20598;-58
2022/08/05 00:59:50;;;;;;;4.57;4.00;;;;;;;;;;5028243;28;20522;-58
2022/08/05 01:02:16;;;;;;;4.70;4.22;;;;;;;;;;5026512;28;20121;-58
2022/08/05 01:04:41;;;;;;;5.75;4.53;;;;;;;;;;5027762;28;20026;-58
2022/08/05 01:07:06;;;;;;;4.78;4.35;;;;;;;;;;5026672;28;20029;-58
2022/08/05 01:09:32;;;;;;;6.72;4.65;;;;;;;;;;5026690;28;20381;-58
2022/08/05 01:12:02;;;;;;;5.60;4.30;;;;;;;;;;5028117;28;20116;-59
2022/08/05 01:14:43;;;;;;;7.28;4.50;;;;;;;;;;5026573;28;20104;-58
2022/08/05 01:17:13;;;;;;;6.80;4.50;;;;;;;;;;5025785;28;20436;-59
2022/08/05 01:19:44;;;;;;;5.85;4.13;;;;;;;;;;5029319;28;20025;-57
2022/08/05 01:22:41;;;;;;;7.93;4.13;;;;;;;;;;5021101;28;20034;-58
2022/08/05 01:25:13;;;;;;;6.88;4.80;;;;;;;;;;5025700;28;20033;-57
2022/08/05 01:28:14;;;;;;;7.57;4.57;;;;;;;;;;5029033;28;20025;-58
2022/08/05 01:30:46;;;;;;;4.65;4.18;;;;;;;;;;5023959;28;20391;-57
2022/08/05 01:33:14;;;;;;;5.38;4.30;;;;;;;;;;5024580;28;20057;-58
2022/08/05 01:35:42;;;;;;;5.55;4.60;;;;;;;;;;5028064;28;20448;-57
2022/08/05 01:38:09;;;;;;;5.47;4.50;;;;;;;;;;5029159;28;20112;-58
2022/08/05 01:40:36;;;;;;;7.40;4.60;;;;;;;;;;5022689;28;20033;-58
2022/08/05 01:43:02;;;;;;;7.05;4.60;;;;;;;;;;5027511;28;20061;-58
2022/08/05 01:45:32;;;;;;;7.32;4.60;;;;;;;;;;5028511;28;20083;-57
2022/08/05 01:48:00;;;;;;;6.07;5.13;;;;;;;;;;5028837;28;20021;-57
2022/08/05 01:50:29;;;;;;;6.57;5.00;;;;;;;;;;5028215;28;20056;-58
2022/08/05 01:52:57;;;;;;;;;;;;;;;;;;5028782;28;20041;-57
2022/08/05 01:55:26;;;;;;;8.48;4.75;;;;;;;;;;5028247;28;19953;-58
2022/08/05 01:57:53;;;;;;;7.83;4.63;;;;;;;;;;5026831;28;20060;-58
2022/08/05 02:00:19;;;;;;;6.95;4.90;;;;;;;;;;5026960;28;20266;-57
2022/08/05 02:02:58;;;;;;;8.95;5.07;;;;;;;;;;5027654;28;20021;-57
2022/08/05 02:05:28;;;;;;;6.78;5.15;;;;;;;;;;5027601;28;20476;-57
2022/08/05 02:07:55;;;;;;;5.88;5.03;;;;;;;;;;5027465;28;20450;-57
2022/08/05 02:10:21;;;;;;;5.72;5.03;;;;;;;;;;5021507;28;20091;-57
2022/08/05 02:13:01;;;;;;;6.72;4.80;;;;;;;;;;5025759;28;20399;-57
2022/08/05 02:15:34;;;;;;;6.82;5.07;;;;;;;;;;5025783;28;20470;-57
2022/08/05 02:18:05;;;;;;;8.27;5.00;;;;;;;;;;5029843;28;20030;-57
2022/08/05 02:20:39;;;;;;;11.35;5.15;;;;;;;;;;5025381;28;20029;-57
2022/08/05 02:23:07;;;;;;;12.30;5.57;;;;;;;;;;5022663;28;20083;-57
2022/08/05 02:25:35;;;;;;;10.63;5.20;;;;;;;;;;5024709;28;20120;-57
2022/08/05 02:28:03;;;;;;;8.98;5.28;;;;;;;;;;5022409;28;20029;-57
2022/08/05 02:30:42;;;;;;;8.77;4.90;;;;;;;;;;5029352;28;20117;-57
2022/08/05 02:33:10;;;;;;;10.75;5.15;;;;;;;;;;5020678;28;20514;-57
2022/08/05 02:35:36;;;;;;;7.35;4.95;;;;;;;;;;5024817;28;20033;-57
2022/08/05 02:38:02;;;;;;;7.95;5.07;;;;;;;;;;5022099;28;20040;-57
2022/08/05 02:40:30;;;;;;;10.35;5.20;;;;;;;;;;5026585;28;20029;-57
2022/08/05 02:42:56;;;;;;;6.47;4.70;;;;;;;;;;5021373;28;20033;-57
2022/08/05 02:45:23;;;;;;;8.52;5.00;;;;;;;;;;5023536;28;20488;-57
2022/08/05 02:47:50;;;;;;;6.70;5.03;;;;;;;;;;5028006;28;20037;-57
2022/08/05 02:50:16;;;;;;;8.73;4.82;;;;;;;;;;5028155;28;20025;-57
2022/08/05 02:52:44;;;;;;;6.57;5.30;;;;;;;;;;5027958;28;20446;-57
2022/08/05 02:55:10;;;;;;;14.07;5.00;;;;;;;;;;5026980;28;20037;-57
2022/08/05 02:57:38;;;;;;;10.38;5.30;;;;;;;;;;5027887;28;20528;-57
2022/08/05 03:00:05;;;;;;;6.95;4.78;;;;;;;;;;5028477;28;20099;-57
2022/08/05 03:02:36;;;;;;;9.57;5.78;;;;;;;;;;5024026;28;20479;-57
2022/08/05 03:05:03;;;;;;;11.35;5.18;;;;;;;;;;5027143;28;20061;-57
2022/08/05 03:07:30;;;;;;;9.30;5.25;;;;;;;;;;5026226;28;20021;-58
2022/08/05 03:09:56;;;;;;;6.90;5.20;;;;;;;;;;5028497;28;20053;-57
2022/08/05 03:12:38;;;;;;;7.25;5.40;;;;;;;;;;5025087;28;20413;-58
2022/08/05 03:15:05;;;;;;;7.40;5.25;;;;;;;;;;5023887;28;20053;-58
2022/08/05 03:17:31;;;;;;;8.75;5.40;;;;;;;;;;5023662;28;20025;-58
2022/08/05 03:19:57;;;;;;;6.78;5.28;;;;;;;;;;5024194;28;20107;-58
2022/08/05 03:22:23;;;;;;;9.68;5.13;;;;;;;;;;5023471;28;20033;-57
2022/08/05 03:24:49;;;;;;;7.68;5.90;;;;;;;;;;5023332;28;20117;-57
2022/08/05 03:27:15;;;;;;;8.70;4.97;;;;;;;;;;5024313;28;20037;-57
2022/08/05 03:29:41;;;;;;;9.20;5.45;;;;;;;;;;5020848;28;20036;-58
2022/08/05 03:32:08;;;;;;;6.40;4.82;;;;;;;;;;5017954;28;20068;-57
2022/08/05 03:34:34;;;;;;;9.45;5.05;;;;;;;;;;5020429;28;20084;-57
2022/08/05 03:37:01;;;;;;;10.65;6.07;;;;;;;;;;5022023;28;20036;-57
2022/08/05 03:39:27;;;;;;;9.95;5.80;;;;;;;;;;5023962;28;20029;-57
2022/08/05 03:41:54;;;;;;;8.73;5.88;;;;;;;;;;5017674;28;20068;-57
2022/08/05 03:44:19;;;;;;;9.90;5.25;;;;;;;;;;5018953;28;20076;-57
2022/08/05 03:46:44;;;;;;;5.93;5.30;;;;;;;;;;5028189;28;20060;-57
2022/08/05 03:49:10;;;;;;;7.85;4.88;;;;;;;;;;5026151;28;20025;-57
2022/08/05 03:51:42;;;;;;;9.60;5.32;;;;;;;;;;5025675;28;20033;-57
2022/08/05 03:54:22;;;;;;;8.50;5.55;;;;;;;;;;5033323;28;20045;-57
2022/08/05 03:56:48;;;;;;;9.27;5.50;;;;;;;;;;5021976;28;20044;-57
2022/08/05 03:59:27;;;;;;;9.15;5.43;;;;;;;;;;5022960;28;20093;-58
2022/08/05 04:01:55;;;;;;;7.65;5.38;;;;;;;;;;5024804;28;20029;-57
2022/08/05 04:04:21;;;;;;;8.82;5.30;;;;;;;;;;5027541;28;20040;-57
2022/08/05 04:06:47;;;;;;;7.47;5.22;;;;;;;;;;5025758;28;20084;-57
2022/08/05 04:09:14;;;;;;;10.68;5.88;;;;;;;;;;5025855;28;20402;-56
2022/08/05 04:11:40;;;;;;;10.82;5.55;;;;;;;;;;5026586;28;20030;-57
2022/08/05 04:14:06;;;;;;;7.10;5.53;;;;;;;;;;5028230;28;20021;-57
2022/08/05 04:16:34;;;;;;;8.05;5.10;;;;;;;;;;5030355;28;20099;-57
2022/08/05 04:18:59;;;;;;;8.57;5.35;;;;;;;;;;5025977;28;20026;-57
2022/08/05 04:21:25;;;;;;;9.73;5.10;;;;;;;;;;5029153;28;20025;-57
2022/08/05 04:23:50;;;;;;;11.18;5.60;;;;;;;;;;5028975;28;20034;-57
2022/08/05 04:26:16;;;;;;;7.93;5.38;;;;;;;;;;5026738;28;20025;-57
2022/08/05 04:28:41;;;;;;;9.70;5.32;;;;;;;;;;5025812;28;20030;-57
2022/08/05 04:31:07;;;;;;;7.25;5.63;;;;;;;;;;5028847;28;20022;-57
2022/08/05 04:33:32;;;;;;;12.57;5.43;;;;;;;;;;5027593;28;20498;-57
2022/08/05 04:35:58;;;;;;;8.98;5.55;;;;;;;;;;5023985;28;20022;-56
2022/08/05 04:38:23;;;;;;;13.23;5.68;;;;;;;;;;5028060;28;20442;-58
2022/08/05 04:40:48;;;;;;;10.07;5.30;;;;;;;;;;5024095;28;20026;-58
2022/08/05 04:43:14;;;;;;;8.07;5.72;;;;;;;;;;5024026;28;20116;-57
2022/08/05 04:45:39;;;;;;;8.63;5.60;;;;;;;;;;5031020;28;20365;-57
2022/08/05 04:48:07;;;;;;;8.27;5.35;;;;;;;;;;5030431;28;20084;-58
2022/08/05 04:50:40;;;;;;;9.23;5.53;;;;;;;;;;5030416;28;20021;-57
2022/08/05 04:53:07;;;;;;;11.32;6.07;;;;;;;;;;5032181;28;20040;-57
2022/08/05 04:55:34;;;;;;;12.02;5.82;;;;;;;;;;5036646;28;20053;-58
2022/08/05 04:57:59;;;;;;;12.55;5.28;;;;;;;;;;5028491;28;20021;-58
2022/08/05 05:00:25;;;;;;;9.60;5.30;;;;;;;;;;5027456;28;20043;-58
2022/08/05 05:02:50;;;;;;;8.30;5.70;;;;;;;;;;5025210;28;20029;-57
2022/08/05 05:05:16;;;;;;;12.27;6.00;;;;;;;;;;5028859;28;20049;-59
2022/08/05 05:07:41;;;;;;;17.63;8.70;;;;;;;;;;5031167;28;20059;-58
2022/08/05 05:10:07;;;;;;;16.98;7.88;;;;;;;;;;5025650;28;20045;-56
2022/08/05 05:12:32;;;;;;;10.07;6.32;;;;;;;;;;5029227;28;20071;-55
2022/08/05 05:14:58;;;;;;;9.10;6.00;;;;;;;;;;5025117;28;20039;-54
2022/08/05 05:17:23;;;;;;;12.05;5.72;;;;;;;;;;5026430;28;20026;-53
2022/08/05 05:19:49;;;;;;;9.57;5.68;;;;;;;;;;5027588;28;20025;-54
2022/08/05 05:22:14;;;;;;;10.32;5.82;;;;;;;;;;5026557;28;20228;-54
2022/08/05 05:24:39;;;;;;;10.80;5.47;;;;;;;;;;5025430;28;20026;-54
2022/08/05 05:27:05;;;;;;;17.90;6.22;;;;;;;;;;5033786;28;20222;-54
2022/08/05 05:29:30;;;;;;;9.30;6.38;;;;;;;;;;5018160;28;20036;-56
2022/08/05 05:31:56;;;;;;;10.23;6.05;;;;;;;;;;5016919;28;20037;-55
2022/08/05 05:34:22;;;;;;;8.98;5.80;;;;;;;;;;5028317;28;20463;-55
2022/08/05 05:36:47;;;;;;;7.72;5.65;;;;;;;;;;5022569;28;20033;-55
2022/08/05 05:39:13;;;;;;;9.65;6.30;;;;;;;;;;5024750;28;20112;-56
2022/08/05 05:41:38;;;;;;;8.80;5.88;;;;;;;;;;5017727;28;20044;-56
2022/08/05 05:44:03;;;;;;;10.70;6.47;;;;;;;;;;5025868;28;20650;-55
2022/08/05 05:46:29;;;;;;;13.20;6.38;;;;;;;;;;5026314;28;20037;-56
2022/08/05 05:48:54;;;;;;;10.25;6.47;;;;;;;;;;5028656;28;20032;-56
2022/08/05 05:51:22;;;;;;;11.60;6.78;;;;;;;;;;5025811;28;20036;-56
2022/08/05 05:53:48;;;;;;;7.53;6.18;;;;;;;;;;5019778;28;20380;-55
2022/08/05 05:56:13;;;;;;;15.30;7.35;;;;;;;;;;5022368;28;20026;-55
2022/08/05 05:58:38;;;;;;;11.18;6.70;;;;;;;;;;5021387;28;20038;-55
2022/08/05 06:01:04;;;;;;;10.05;7.28;;;;;;;;;;5020113;28;20034;-55
2022/08/05 06:03:29;;;;;;;10.10;6.93;;;;;;;;;;5024538;28;20505;-55
2022/08/05 06:05:55;;;;;;;8.25;6.53;;;;;;;;;;5025708;28;20614;-55
2022/08/05 06:08:20;;;;;;;12.88;7.13;;;;;;;;;;5024443;28;20036;-55
2022/08/05 06:10:48;;;;;;;8.70;6.57;;;;;;;;;;5022829;28;20029;-55
2022/08/05 06:13:13;;;;;;;11.98;6.90;;;;;;;;;;5021704;28;20410;-56
2022/08/05 06:15:39;;;;;;;12.63;7.40;;;;;;;;;;5023221;28;20021;-55
2022/08/05 06:18:05;;;;;;;13.68;7.57;;;;;;;;;;5021408;28;20037;-55
2022/08/05 06:20:30;;;;;;;10.60;6.72;;;;;;;;;;5018694;28;20438;-56
2022/08/05 06:22:57;;;;;;;10.02;6.30;;;;;;;;;;5017020;28;20049;-55
2022/08/05 06:25:22;;;;;;;11.98;7.22;;;;;;;;;;5020110;28;20049;-55
2022/08/05 06:27:48;;;;;;;12.52;7.00;;;;;;;;;;5019733;28;20115;-55
2022/08/05 06:30:14;;;;;;;9.82;6.88;;;;;;;;;;5019697;28;20156;-55
2022/08/05 06:32:42;;;;;;;12.75;6.78;;;;;;;;;;5018273;28;20040;-55
2022/08/05 06:35:07;;;;;;;12.38;7.10;;;;;;;;;;5018162;28;20030;-55
2022/08/05 06:37:33;;;;;;;12.35;7.38;;;;;;;;;;5015918;28;20083;-55
2022/08/05 06:39:58;;;;;;;11.50;7.13;;;;;;;;;;5018041;28;20443;-55
2022/08/05 06:42:24;;;;;;;10.77;7.03;;;;;;;;;;5017634;28;20125;-55
2022/08/05 06:44:49;;;;;;;11.50;7.07;;;;;;;;;;5022906;28;20021;-55
2022/08/05 06:47:14;;;;;;;13.63;7.60;;;;;;;;;;5023783;28;20495;-56
2022/08/05 06:49:40;;;;;;;9.35;7.00;;;;;;;;;;5021603;28;20056;-55
2022/08/05 06:52:05;;;;;;;13.98;7.10;;;;;;;;;;5015887;28;20033;-54
2022/08/05 06:54:30;;;;;;;15.27;7.78;;;;;;;;;;5019503;28;20025;-57
2022/08/05 06:56:56;;;;;;;10.13;6.72;;;;;;;;;;5025964;28;20030;-55
2022/08/05 06:59:21;;;;;;;17.65;7.95;;;;;;;;;;5020190;28;20076;-55
2022/08/05 07:01:47;;;;;;;11.18;7.65;;;;;;;;;;5024123;28;20022;-55
2022/08/05 07:04:12;;;;;;;14.25;7.57;;;;;;;;;;5020138;28;20029;-55
2022/08/05 07:06:37;;;;;;;11.95;7.30;;;;;;;;;;5023286;28;20022;-55
2022/08/05 07:09:03;;;;;;;13.27;8.25;;;;;;;;;;5018037;28;20411;-55
2022/08/05 07:11:29;;;;;;;13.73;8.15;;;;;;;;;;5019975;28;20040;-55
2022/08/05 07:16:48;;;;;;;15.30;8.55;;;;;;;;;;5023545;28;20090;-55
2022/08/05 07:19:23;;;;;;;11.80;7.50;;;;;;;;;;5024495;28;20021;-56
2022/08/05 07:21:49;;;;;;;10.98;7.18;;;;;;;;;;5019009;28;20502;-55
2022/08/05 07:24:15;;;;;;;11.75;7.70;;;;;;;;;;5016124;28;20030;-57
2022/08/05 07:26:41;;;;;;;13.55;7.93;;;;;;;;;;5018799;28;20029;-56
2022/08/05 07:29:07;;;;;;;11.35;7.80;;;;;;;;;;5015172;28;20487;-57
2022/08/05 07:31:33;;;;;;;11.25;7.35;;;;;;;;;;5016279;28;20041;-61
2022/08/05 07:33:58;;;;;;;12.07;6.97;;;;;;;;;;5018993;28;20025;-59
2022/08/05 07:36:24;;;;;;;10.25;7.18;;;;;;;;;;5015364;28;20029;-60
2022/08/05 07:38:50;;;;;;;9.30;6.40;;;;;;;;;;5019043;28;20056;-59
2022/08/05 07:41:18;;;;;;;13.30;7.22;;;;;;;;;;5019444;28;20137;-59
2022/08/05 07:43:44;;;;;;;8.40;7.10;;;;;;;;;;5024875;28;20080;-58
2022/08/05 07:46:09;;;;;;;10.40;7.20;;;;;;;;;;5022068;28;20033;-58
2022/08/05 07:48:34;;;;;;;9.40;6.93;;;;;;;;;;5018745;28;20071;-58
2022/08/05 07:51:00;;;;;;;9.88;6.93;;;;;;;;;;5023490;28;20029;-61
2022/08/05 07:53:25;;;;;;;9.65;6.93;;;;;;;;;;5024146;28;20018;-59
2022/08/05 07:55:51;;;;;;;9.40;6.45;;;;;;;;;;5023403;28;20029;-61
2022/08/05 07:58:16;;;;;;;9.18;6.70;;;;;;;;;;5019012;28;20113;-59
2022/08/05 08:00:42;;;;;;;8.15;5.93;;;;;;;;;;5020435;28;20036;-60
2022/08/05 08:03:11;;;;;;;8.27;5.60;;;;;;;;;;5024350;28;20132;-59
2022/08/05 08:05:38;;;;;;;9.55;5.65;;;;;;;;;;5023156;28;20040;-60
2022/08/05 08:08:03;;;;;;;9.00;6.30;;;;;;;;;;5021518;28;20042;-59
2022/08/05 08:10:29;;;;;;;7.22;4.63;;;;;;;;;;5024667;28;20112;-61
2022/08/05 08:12:54;;;;;;;10.23;5.05;;;;;;;;;;5021793;28;20091;-59
2022/08/05 08:15:20;;;;;;;9.45;4.80;;;;;;;;;;5025226;28;20049;-59
2022/08/05 08:17:46;;;;;;;8.18;5.07;;;;;;;;;;5016481;28;20063;-59
2022/08/05 08:20:12;;;;;;;9.10;5.50;;;;;;;;;;5018981;28;20425;-59
2022/08/05 08:22:38;;;;;;;8.02;4.80;;;;;;;;;;5020522;28;20411;-59
2022/08/05 08:25:04;;;;;;;7.00;4.65;;;;;;;;;;5026884;28;20041;-59
2022/08/05 08:27:31;;;;;;;4.90;4.40;;;;;;;;;;5019276;28;20057;-58
2022/08/05 08:29:57;;;;;;;6.25;4.88;;;;;;;;;;5019703;28;20028;-60
2022/08/05 08:32:22;;;;;;;5.82;3.92;;;;;;;;;;5020531;28;20038;-60
2022/08/05 08:34:48;;;;;;;8.07;4.00;;;;;;;;;;5017409;28;20048;-59
2022/08/05 08:37:13;;;;;;;6.22;4.85;;;;;;;;;;5021405;28;20408;-61
2022/08/05 08:39:38;;;;;;;6.22;4.50;;;;;;;;;;5019815;28;20025;-59
2022/08/05 08:42:07;;;;;;;6.85;4.57;;;;;;;;;;5027358;28;20034;-59
2022/08/05 08:44:32;;;;;;;6.70;4.43;;;;;;;;;;5024708;28;20021;-59
2022/08/05 08:47:01;;;;;;;6.93;4.63;;;;;;;;;;5021663;28;20036;-61
2022/08/05 08:49:27;;;;;;;4.38;3.70;;;;;;;;;;5020768;28;20371;-59
2022/08/05 08:52:11;;;;;;;12.45;4.70;;;;;;;;;;5013118;28;20057;-59
2022/08/05 08:54:36;;;;;;;10.35;4.70;;;;;;;;;;5023990;28;20029;-61
2022/08/05 08:57:05;;;;;;;7.18;4.35;;;;;;;;;;5022663;28;20372;-59
2022/08/05 08:59:32;;;;;;;6.18;4.22;;;;;;;;;;5023793;28;20490;-59
2022/08/05 09:01:59;;;;;;;7.82;4.53;;;;;;;;;;5025663;28;20041;-61
2022/08/05 09:04:25;;;;;;;9.77;4.47;;;;;;;;;;5025874;28;20038;-59
2022/08/05 09:06:51;;;;;;;6.57;4.57;;;;;;;;;;5019987;28;20443;-59
2022/08/05 09:09:16;;;;;;;5.95;4.20;;;;;;;;;;5022398;28;20021;-62
2022/08/05 09:11:42;;;;;;;7.22;4.18;;;;;;;;;;5023440;28;20075;-59
2022/08/05 09:14:07;;;;;;;6.80;4.20;;;;;;;;;;5022630;28;20087;-63
2022/08/05 09:16:33;;;;;;;5.43;4.15;;;;;;;;;;5023359;28;20056;-58
2022/08/05 09:18:58;;;;;;;5.72;4.28;;;;;;;;;;5022985;28;20067;-59
2022/08/05 09:21:27;;;;;;;7.93;4.55;;;;;;;;;;5020669;28;20042;-59
2022/08/05 09:24:04;;;;;;;6.03;4.00;;;;;;;;;;5022199;28;20087;-59
2022/08/05 09:26:30;;;;;;;5.45;4.10;;;;;;;;;;5026504;28;20064;-59
2022/08/05 09:29:03;;;;;;;5.22;4.10;;;;;;;;;;5019617;28;20022;-59
2022/08/05 09:31:29;;;;;;;4.80;3.90;;;;;;;;;;5024321;28;20071;-59
2022/08/05 09:34:05;;;;;;;7.07;4.00;;;;;;;;;;5026000;28;20072;-59
2022/08/05 09:36:43;;;;;;;4.60;4.10;;;;;;;;;;5023766;28;20125;-59
2022/08/05 09:39:11;;;;;;;6.00;3.95;;;;;;;;;;5021782;28;20053;-58
2022/08/05 09:41:59;;;;;;;6.47;4.00;;;;;;;;;;5016467;28;20033;-58
2022/08/05 09:44:35;;;;;;;;;;;;;;;;;;5025700;28;20021;-58
2022/08/05 09:47:18;;;;;;;9.68;3.70;;;;;;;;;;5024933;28;19951;-60
2022/08/05 09:49:54;;;;;;;5.18;4.20;;;;;;;;;;5019308;28;20029;-58
2022/08/05 09:52:30;;;;;;;7.95;5.05;;;;;;;;;;5024095;28;20026;-58
2022/08/05 09:55:10;;;;;;;9.90;4.82;;;;;;;;;;5018210;28;20037;-58
2022/08/05 09:57:44;;;;;;;7.18;4.20;;;;;;;;;;5015763;28;20113;-58
2022/08/05 10:00:15;;;;;;;7.25;4.22;;;;;;;;;;5024865;28;20520;-58
2022/08/05 10:02:43;;;;;;;7.60;3.65;;;;;;;;;;5023809;28;20106;-58
2022/08/05 10:05:18;;;;;;;7.68;4.35;;;;;;;;;;5023055;28;20395;-58
2022/08/05 10:07:56;;;;;;;7.25;4.10;;;;;;;;;;5020659;28;20068;-59
2022/08/05 10:10:26;;;;;;;7.53;4.28;;;;;;;;;;5022002;28;20036;-59
2022/08/05 10:12:57;;;;;;;7.60;4.18;;;;;;;;;;5020760;28;20021;-58
2022/08/05 10:15:35;;;;;;;6.30;4.32;;;;;;;;;;5020948;28;20515;-59
2022/08/05 10:18:03;;;;;;;;;;;;;;;;;;5021123;28;20509;-59
2022/08/05 10:20:31;;;;;;;6.65;3.83;;;;;;;;;;5022707;28;20523;-59
2022/08/05 10:22:57;;;;;;;5.78;3.80;;;;;;;;;;5021478;28;20056;-59
2022/08/05 10:25:22;;;;;;;4.05;3.65;;;;;;;;;;5024931;28;20072;-59
2022/08/05 10:27:48;;;;;;;4.22;3.70;;;;;;;;;;5025003;28;20488;-59
2022/08/05 10:30:14;;;;;;;4.45;3.65;;;;;;;;;;5023729;28;20470;-59
2022/08/05 10:32:40;;;;;;;5.32;3.55;;;;;;;;;;5019398;28;20080;-59
2022/08/05 10:35:06;;;;;;;5.80;3.90;;;;;;;;;;5024685;28;20048;-59
2022/08/05 10:37:32;;;;;;;4.07;3.63;;;;;;;;;;5026193;28;20495;-59
2022/08/05 10:40:03;;;;;;;7.20;3.97;;;;;;;;;;5025871;28;20034;-59
2022/08/05 10:42:35;;;;;;;5.28;4.13;;;;;;;;;;5022574;28;20037;-59
2022/08/05 10:45:02;;;;;;;6.82;4.00;;;;;;;;;;5020989;28;20391;-60
2022/08/05 10:47:35;;;;;;;4.18;3.75;;;;;;;;;;5023348;28;20126;-60
2022/08/05 10:50:04;;;;;;;6.32;4.32;;;;;;;;;;5016530;28;20080;-62
2022/08/05 10:52:43;;;;;;;5.70;3.80;;;;;;;;;;5016918;28;20087;-59
2022/08/05 10:55:10;;;;;;;8.85;3.58;;;;;;;;;;5024077;28;20048;-59
2022/08/05 10:57:40;;;;;;;4.45;3.80;;;;;;;;;;5021522;28;20025;-58
2022/08/05 11:00:11;;;;;;;8.88;4.03;;;;;;;;;;5022506;28;20037;-59
2022/08/05 11:02:37;;;;;;;6.00;3.65;;;;;;;;;;5019168;28;20052;-59
2022/08/05 11:05:08;;;;;;;5.43;3.50;;;;;;;;;;5024811;28;20072;-56
2022/08/05 11:07:34;;;;;;;5.65;3.63;;;;;;;;;;5023869;28;20124;-56
2022/08/05 11:10:03;;;;;;;4.45;3.45;;;;;;;;;;5023774;28;20112;-56
2022/08/05 11:12:52;;;;;;;6.57;3.40;;;;;;;;;;5021468;28;20025;-56
2022/08/05 11:15:21;;;;;;;5.28;3.50;;;;;;;;;;5023549;28;20133;-56
2022/08/05 11:17:47;;;;;;;4.25;3.70;;;;;;;;;;5023239;28;20530;-57
2022/08/05 11:20:36;;;;;;;5.57;3.42;;;;;;;;;;5023773;28;20692;-56
2022/08/05 11:23:36;;;;;;;3.15;2.85;;;;;;;;;;5022308;28;20039;-57
2022/08/05 11:26:21;;;;;;;4.82;3.60;;;;;;;;;;5020918;28;20049;-57
2022/08/05 11:28:53;;;;;;;5.55;3.50;;;;;;;;;;5019858;28;20032;-60
2022/08/05 11:31:22;;;;;;;5.22;3.90;;;;;;;;;;5016888;28;20030;-60
2022/08/05 11:33:48;;;;;;;6.75;4.05;;;;;;;;;;5020833;28;20030;-59
2022/08/05 11:36:16;;;;;;;3.38;3.08;;;;;;;;;;5019663;28;20041;-63
2022/08/05 11:38:42;;;;;;;4.55;3.42;;;;;;;;;;5020614;28;20041;-60
2022/08/05 11:41:17;;;;;;;5.15;3.30;;;;;;;;;;5022697;28;20044;-60
2022/08/05 11:43:57;;;;;;;6.63;3.53;;;;;;;;;;5022132;28;20038;-60
2022/08/05 11:46:34;;;;;;;8.25;3.65;;;;;;;;;;5021509;28;20116;-60
2022/08/05 11:49:00;;;;;;;11.75;3.33;;;;;;;;;;5017896;28;20030;-59
2022/08/05 11:51:27;;;;;;;4.05;3.53;;;;;;;;;;5019127;28;20030;-60
2022/08/05 11:53:54;;;;;;;3.95;3.45;;;;;;;;;;5020781;28;20095;-60
2022/08/05 11:56:20;;;;;;;3.63;3.28;;;;;;;;;;5022787;28;20056;-60
2022/08/05 11:58:47;;;;;;;5.93;3.53;;;;;;;;;;5022449;28;20628;-60
2022/08/05 12:01:20;;;;;;;5.22;3.38;;;;;;;;;;5022075;28;20030;-61
2022/08/05 12:03:50;;;;;;;3.30;3.00;;;;;;;;;;5019531;28;20396;-60
2022/08/05 12:06:16;;;;;;;4.85;3.30;;;;;;;;;;5020448;28;20033;-61
2022/08/05 12:08:47;;;;;;;3.22;2.88;;;;;;;;;;5020830;28;20025;-61
2022/08/05 12:11:27;;;;;;;4.50;3.30;;;;;;;;;;5021475;28;20021;-61
2022/08/05 12:14:00;;;;;;;3.67;3.38;;;;;;;;;;5022604;28;20639;-57
2022/08/05 12:16:27;;;;;;;4.43;2.85;;;;;;;;;;5021747;28;20391;-60
2022/08/05 12:18:54;;;;;;;4.35;3.03;;;;;;;;;;5020273;28;20037;-60
2022/08/05 12:21:21;;;;;;;5.68;3.20;;;;;;;;;;5021063;28;20080;-60
2022/08/05 12:24:06;;;;;;;6.00;3.47;;;;;;;;;;5021903;28;20021;-60
2022/08/05 12:26:34;;;;;;;5.22;3.20;;;;;;;;;;5023364;28;20034;-60
2022/08/05 12:29:00;;;;;;;4.73;2.87;;;;;;;;;;5017831;28;20025;-61
2022/08/05 12:31:25;;;;;;;5.10;3.42;;;;;;;;;;5019793;28;20403;-60
2022/08/05 12:33:53;;;;;;;3.50;2.80;;;;;;;;;;5022899;28;20064;-59
2022/08/05 12:36:19;;;;;;;3.90;3.17;;;;;;;;;;5021887;28;20052;-59
2022/08/05 12:38:44;;;;;;;5.35;3.53;;;;;;;;;;5028368;28;20029;-59
2022/08/05 12:41:14;;;;;;;4.97;3.25;;;;;;;;;;5020262;28;20021;-59
2022/08/05 12:43:53;;;;;;;4.22;3.17;;;;;;;;;;5026064;28;20368;-59
2022/08/05 12:46:27;;;;;;;6.53;3.20;;;;;;;;;;5026909;28;20124;-59
2022/08/05 12:49:05;;;;;;;4.90;3.22;;;;;;;;;;5024822;28;20041;-60
2022/08/05 12:51:41;;;;;;;6.28;3.20;;;;;;;;;;5020669;28;20021;-59
2022/08/05 12:54:08;;;;;;;3.85;3.22;;;;;;;;;;5020005;28;20030;-59
2022/08/05 12:56:40;;;;;;;7.95;3.47;;;;;;;;;;5027481;28;20028;-60
2022/08/05 12:59:14;;;;;;;4.70;3.20;;;;;;;;;;5028568;28;20559;-59
2022/08/05 13:01:42;;;;;;;5.40;3.42;;;;;;;;;;5028615;28;20415;-59
2022/08/05 13:04:08;;;;;;;4.78;3.20;;;;;;;;;;5023624;28;20033;-59
2022/08/05 13:06:40;;;;;;;5.82;3.72;;;;;;;;;;5027009;28;20033;-60
2022/08/05 13:09:08;;;;;;;4.63;3.60;;;;;;;;;;5022055;28;20040;-60
2022/08/05 13:11:39;;;;;;;4.95;3.20;;;;;;;;;;5022576;28;20060;-60
2022/08/05 13:14:13;;;;;;;3.60;3.30;;;;;;;;;;5018550;28;20103;-60
2022/08/05 13:16:56;;;;;;;5.07;3.25;;;;;;;;;;5018367;28;20451;-60
2022/08/05 13:19:26;;;;;;;7.72;3.60;;;;;;;;;;5022352;28;20034;-60
2022/08/05 13:21:53;;;;;;;3.55;3.15;;;;;;;;;;5018975;28;20072;-60
2022/08/05 13:24:20;;;;;;;7.03;3.45;;;;;;;;;;5019010;28;20040;-60
2022/08/05 13:26:47;;;;;;;7.00;3.55;;;;;;;;;;5017603;28;20483;-60
2022/08/05 13:29:13;;;;;;;4.90;3.30;;;;;;;;;;5021589;28;20037;-60
2022/08/05 13:31:39;;;;;;;5.90;3.40;;;;;;;;;;5013447;28;20040;-60
2022/08/05 13:34:05;;;;;;;4.03;3.33;;;;;;;;;;5019682;28;20796;-60
2022/08/05 13:36:32;;;;;;;5.10;3.40;;;;;;;;;;5026796;28;20032;-60
2022/08/05 13:38:57;;;;;;;3.97;3.45;;;;;;;;;;5027525;28;20238;-60
2022/08/05 13:41:23;;;;;;;5.40;3.70;;;;;;;;;;5023857;28;20131;-60
2022/08/05 13:43:48;;;;;;;3.78;3.17;;;;;;;;;;5024542;28;20429;-60
2022/08/05 13:46:14;;;;;;;5.45;3.35;;;;;;;;;;5025802;28;20514;-60
2022/08/05 13:48:40;;;;;;;5.10;3.25;;;;;;;;;;5017644;28;20057;-60
2022/08/05 13:51:12;;;;;;;6.90;3.30;;;;;;;;;;5023852;28;20087;-60
2022/08/05 13:53:38;;;;;;;6.05;3.05;;;;;;;;;;5019648;28;20029;-60
2022/08/05 13:56:04;;;;;;;3.33;3.00;;;;;;;;;;5019872;28;20044;-60
2022/08/05 13:58:30;;;;;;;5.78;3.03;;;;;;;;;;5023511;28;20238;-60
2022/08/05 14:00:57;;;;;;;3.85;3.20;;;;;;;;;;5021953;28;20067;-60
2022/08/05 14:03:22;;;;;;;5.40;3.47;;;;;;;;;;5024533;28;20074;-60
2022/08/05 14:05:48;;;;;;;6.28;3.10;;;;;;;;;;5021905;28;20025;-60
2022/08/05 14:08:14;;;;;;;4.55;3.33;;;;;;;;;;5020379;28;20506;-60
2022/08/05 14:10:39;;;;;;;6.15;3.25;;;;;;;;;;5025982;28;20388;-60
2022/08/05 14:13:08;;;;;;;4.53;3.00;;;;;;;;;;5024471;28;20034;-60
2022/08/05 14:15:34;;;;;;;5.75;3.65;;;;;;;;;;5020866;28;20472;-59
2022/08/05 14:18:00;;;;;;;4.22;3.10;;;;;;;;;;5021178;28;20044;-63
2022/08/05 14:20:26;;;;;;;6.50;3.35;;;;;;;;;;5021668;28;20033;-59
2022/08/05 14:22:52;;;;;;;5.40;3.60;;;;;;;;;;5020128;28;20467;-59
2022/08/05 14:25:20;;;;;;;5.47;3.28;;;;;;;;;;5022338;28;20063;-59
2022/08/05 14:27:47;;;;;;;4.88;3.58;;;;;;;;;;5022403;28;20572;-59
2022/08/05 14:30:12;;;;;;;10.68;4.00;;;;;;;;;;5022980;28;20506;-59
2022/08/05 14:32:38;;;;;;;4.00;3.60;;;;;;;;;;5023068;28;20033;-59
2022/08/05 14:35:04;;;;;;;6.75;3.47;;;;;;;;;;5022312;28;21721;-59
2022/08/05 14:37:29;;;;;;;10.82;3.67;;;;;;;;;;5023078;28;20540;-59
2022/08/05 14:39:55;;;;;;;6.05;3.67;;;;;;;;;;5026310;28;20276;-59
2022/08/05 14:42:21;;;;;;;6.28;3.80;;;;;;;;;;5025045;28;20025;-59
2022/08/05 14:44:47;;;;;;;3.90;3.55;;;;;;;;;;5025339;28;20108;-59
2022/08/05 14:47:12;;;;;;;3.47;3.17;;;;;;;;;;5027097;28;20029;-59
2022/08/05 14:49:38;;;;;;;7.47;3.65;;;;;;;;;;5018818;28;20041;-59